sensor_id;sensor_type;location;lat;lon;timestamp;P1;durP1;ratioP1;P2;durP2;ratioP2
9248;SDS011;4660;41.768;26.198;2023-05-07T00:01:04;10.83;;;3.27;;
9248;SDS011;4660;41.768;26.198;2023-05-07T00:03:31;3.67;;;3.30;;
9248;SDS011;4660;41.768;26.198;2023-05-07T00:05:57;5.90;;;2.97;;
9248;SDS011;4660;41.768;26.198;2023-05-07T00:08:23;3.07;;;2.47;;
9248;SDS011;4660;41.768;26.198;2023-05-07T00:10:49;4.60;;;2.70;;
9248;SDS011;4660;41.768;26.198;2023-05-07T00:13:14;5.07;;;2.80;;
9248;SDS011;4660;41.768;26.198;2023-05-07T00:15:40;4.73;;;2.80;;
9248;SDS011;4660;41.768;26.198;2023-05-07T00:18:06;4.07;;;2.80;;
9248;SDS011;4660;41.768;26.198;2023-05-07T00:20:31;11.37;;;2.83;;
9248;SDS011;4660;41.768;26.198;2023-05-07T00:22:57;4.77;;;2.43;;
9248;SDS011;4660;41.768;26.198;2023-05-07T00:25:23;7.67;;;2.83;;
9248;SDS011;4660;41.768;26.198;2023-05-07T00:27:48;4.47;;;3.27;;
9248;SDS011;4660;41.768;26.198;2023-05-07T00:30:14;5.37;;;3.40;;
9248;SDS011;4660;41.768;26.198;2023-05-07T00:32:39;4.83;;;2.80;;
9248;SDS011;4660;41.768;26.198;2023-05-07T00:35:05;7.27;;;2.73;;
9248;SDS011;4660;41.768;26.198;2023-05-07T00:37:31;4.10;;;2.70;;
9248;SDS011;4660;41.768;26.198;2023-05-07T00:39:57;3.53;;;2.77;;
9248;SDS011;4660;41.768;26.198;2023-05-07T00:42:22;5.00;;;3.10;;
9248;SDS011;4660;41.768;26.198;2023-05-07T00:44:49;5.77;;;2.90;;
9248;SDS011;4660;41.768;26.198;2023-05-07T00:47:15;6.50;;;3.13;;
9248;SDS011;4660;41.768;26.198;2023-05-07T00:49:42;5.73;;;2.90;;
9248;SDS011;4660;41.768;26.198;2023-05-07T00:52:13;4.70;;;3.10;;
9248;SDS011;4660;41.768;26.198;2023-05-07T00:54:41;7.20;;;3.33;;
9248;SDS011;4660;41.768;26.198;2023-05-07T00:57:07;4.30;;;2.80;;
9248;SDS011;4660;41.768;26.198;2023-05-07T00:59:36;5.97;;;3.20;;
9248;SDS011;4660;41.768;26.198;2023-05-07T01:02:02;5.10;;;3.87;;
9248;SDS011;4660;41.768;26.198;2023-05-07T01:04:27;7.00;;;3.37;;
9248;SDS011;4660;41.768;26.198;2023-05-07T01:06:56;6.23;;;2.93;;
9248;SDS011;4660;41.768;26.198;2023-05-07T01:09:24;7.70;;;3.70;;
9248;SDS011;4660;41.768;26.198;2023-05-07T01:11:50;4.37;;;3.40;;
9248;SDS011;4660;41.768;26.198;2023-05-07T01:14:17;7.73;;;3.73;;
9248;SDS011;4660;41.768;26.198;2023-05-07T01:16:43;6.20;;;3.40;;
9248;SDS011;4660;41.768;26.198;2023-05-07T01:19:09;8.33;;;3.10;;
9248;SDS011;4660;41.768;26.198;2023-05-07T01:21:38;6.20;;;3.30;;
9248;SDS011;4660;41.768;26.198;2023-05-07T01:24:11;5.30;;;3.47;;
9248;SDS011;4660;41.768;26.198;2023-05-07T01:26:38;6.33;;;3.67;;
9248;SDS011;4660;41.768;26.198;2023-05-07T01:29:04;5.07;;;4.07;;
9248;SDS011;4660;41.768;26.198;2023-05-07T01:31:29;10.63;;;3.83;;
9248;SDS011;4660;41.768;26.198;2023-05-07T01:33:55;5.30;;;4.03;;
9248;SDS011;4660;41.768;26.198;2023-05-07T01:36:24;4.40;;;3.63;;
9248;SDS011;4660;41.768;26.198;2023-05-07T01:38:52;5.67;;;4.03;;
9248;SDS011;4660;41.768;26.198;2023-05-07T01:41:18;5.50;;;3.73;;
9248;SDS011;4660;41.768;26.198;2023-05-07T01:43:45;5.27;;;3.87;;
9248;SDS011;4660;41.768;26.198;2023-05-07T01:46:12;5.00;;;3.87;;
9248;SDS011;4660;41.768;26.198;2023-05-07T01:48:38;5.60;;;3.77;;
9248;SDS011;4660;41.768;26.198;2023-05-07T01:51:04;4.73;;;3.50;;
9248;SDS011;4660;41.768;26.198;2023-05-07T01:53:37;4.70;;;3.70;;
9248;SDS011;4660;41.768;26.198;2023-05-07T01:56:04;6.03;;;4.70;;
9248;SDS011;4660;41.768;26.198;2023-05-07T01:58:30;4.40;;;4.00;;
9248;SDS011;4660;41.768;26.198;2023-05-07T02:00:56;5.67;;;3.87;;
9248;SDS011;4660;41.768;26.198;2023-05-07T02:03:21;4.63;;;3.97;;
9248;SDS011;4660;41.768;26.198;2023-05-07T02:05:47;6.83;;;4.60;;
9248;SDS011;4660;41.768;26.198;2023-05-07T02:08:12;4.90;;;4.30;;
9248;SDS011;4660;41.768;26.198;2023-05-07T02:10:38;8.33;;;4.80;;
9248;SDS011;4660;41.768;26.198;2023-05-07T02:13:04;5.93;;;4.33;;
9248;SDS011;4660;41.768;26.198;2023-05-07T02:15:29;6.57;;;5.03;;
9248;SDS011;4660;41.768;26.198;2023-05-07T02:17:59;7.63;;;4.40;;
9248;SDS011;4660;41.768;26.198;2023-05-07T02:20:26;7.83;;;4.37;;
9248;SDS011;4660;41.768;26.198;2023-05-07T02:22:52;4.97;;;4.47;;
9248;SDS011;4660;41.768;26.198;2023-05-07T02:25:17;6.37;;;5.03;;
9248;SDS011;4660;41.768;26.198;2023-05-07T02:27:43;6.47;;;4.60;;
9248;SDS011;4660;41.768;26.198;2023-05-07T02:30:08;9.63;;;4.83;;
9248;SDS011;4660;41.768;26.198;2023-05-07T02:32:34;7.90;;;5.80;;
9248;SDS011;4660;41.768;26.198;2023-05-07T02:35:00;7.30;;;4.87;;
9248;SDS011;4660;41.768;26.198;2023-05-07T02:37:25;8.90;;;5.07;;
9248;SDS011;4660;41.768;26.198;2023-05-07T02:39:51;5.80;;;5.17;;
9248;SDS011;4660;41.768;26.198;2023-05-07T02:42:16;10.07;;;6.00;;
9248;SDS011;4660;41.768;26.198;2023-05-07T02:44:42;8.40;;;5.20;;
9248;SDS011;4660;41.768;26.198;2023-05-07T02:47:08;6.83;;;4.93;;
9248;SDS011;4660;41.768;26.198;2023-05-07T02:49:34;7.23;;;5.10;;
9248;SDS011;4660;41.768;26.198;2023-05-07T02:52:00;12.30;;;6.33;;
9248;SDS011;4660;41.768;26.198;2023-05-07T02:54:25;7.33;;;5.90;;
9248;SDS011;4660;41.768;26.198;2023-05-07T02:56:51;8.73;;;5.80;;
9248;SDS011;4660;41.768;26.198;2023-05-07T02:59:16;9.17;;;5.70;;
9248;SDS011;4660;41.768;26.198;2023-05-07T03:01:42;6.97;;;6.27;;
9248;SDS011;4660;41.768;26.198;2023-05-07T03:04:09;8.40;;;6.73;;
9248;SDS011;4660;41.768;26.198;2023-05-07T03:06:35;15.40;;;6.90;;
9248;SDS011;4660;41.768;26.198;2023-05-07T03:09:01;10.00;;;6.53;;
9248;SDS011;4660;41.768;26.198;2023-05-07T03:11:27;10.20;;;6.77;;
9248;SDS011;4660;41.768;26.198;2023-05-07T03:13:52;8.30;;;7.20;;
9248;SDS011;4660;41.768;26.198;2023-05-07T03:16:18;9.37;;;7.30;;
9248;SDS011;4660;41.768;26.198;2023-05-07T03:18:44;10.23;;;7.10;;
9248;SDS011;4660;41.768;26.198;2023-05-07T03:21:09;9.37;;;7.17;;
9248;SDS011;4660;41.768;26.198;2023-05-07T03:23:35;11.70;;;7.70;;
9248;SDS011;4660;41.768;26.198;2023-05-07T03:26:00;8.30;;;6.60;;
9248;SDS011;4660;41.768;26.198;2023-05-07T03:28:26;10.20;;;7.07;;
9248;SDS011;4660;41.768;26.198;2023-05-07T03:30:52;12.73;;;7.20;;
9248;SDS011;4660;41.768;26.198;2023-05-07T03:33:17;8.53;;;7.00;;
9248;SDS011;4660;41.768;26.198;2023-05-07T03:35:43;9.27;;;7.10;;
9248;SDS011;4660;41.768;26.198;2023-05-07T03:38:08;9.17;;;6.90;;
9248;SDS011;4660;41.768;26.198;2023-05-07T03:40:34;9.50;;;7.43;;
9248;SDS011;4660;41.768;26.198;2023-05-07T03:43:00;9.27;;;7.33;;
9248;SDS011;4660;41.768;26.198;2023-05-07T03:45:25;9.57;;;7.20;;
9248;SDS011;4660;41.768;26.198;2023-05-07T03:47:51;10.50;;;7.40;;
9248;SDS011;4660;41.768;26.198;2023-05-07T03:50:16;11.00;;;7.33;;
9248;SDS011;4660;41.768;26.198;2023-05-07T03:52:42;8.60;;;7.33;;
9248;SDS011;4660;41.768;26.198;2023-05-07T03:55:08;10.73;;;8.03;;
9248;SDS011;4660;41.768;26.198;2023-05-07T03:57:33;12.50;;;8.60;;
9248;SDS011;4660;41.768;26.198;2023-05-07T03:59:59;12.17;;;8.07;;
9248;SDS011;4660;41.768;26.198;2023-05-07T04:02:24;10.33;;;7.20;;
9248;SDS011;4660;41.768;26.198;2023-05-07T04:04:50;10.37;;;7.43;;
9248;SDS011;4660;41.768;26.198;2023-05-07T04:07:16;8.80;;;7.77;;
9248;SDS011;4660;41.768;26.198;2023-05-07T04:09:41;12.80;;;8.30;;
9248;SDS011;4660;41.768;26.198;2023-05-07T04:12:07;9.27;;;7.00;;
9248;SDS011;4660;41.768;26.198;2023-05-07T04:14:33;8.53;;;7.47;;
9248;SDS011;4660;41.768;26.198;2023-05-07T04:16:59;8.77;;;7.57;;
9248;SDS011;4660;41.768;26.198;2023-05-07T04:19:24;10.33;;;7.97;;
9248;SDS011;4660;41.768;26.198;2023-05-07T04:21:50;11.73;;;7.37;;
9248;SDS011;4660;41.768;26.198;2023-05-07T04:24:15;8.33;;;7.10;;
9248;SDS011;4660;41.768;26.198;2023-05-07T04:26:41;9.53;;;6.97;;
9248;SDS011;4660;41.768;26.198;2023-05-07T04:29:07;8.50;;;7.30;;
9248;SDS011;4660;41.768;26.198;2023-05-07T04:31:32;9.50;;;7.57;;
9248;SDS011;4660;41.768;26.198;2023-05-07T04:33:58;11.47;;;7.97;;
9248;SDS011;4660;41.768;26.198;2023-05-07T04:36:25;10.40;;;7.07;;
9248;SDS011;4660;41.768;26.198;2023-05-07T04:38:53;9.13;;;7.30;;
9248;SDS011;4660;41.768;26.198;2023-05-07T04:41:19;10.57;;;7.63;;
9248;SDS011;4660;41.768;26.198;2023-05-07T04:43:45;12.83;;;7.63;;
9248;SDS011;4660;41.768;26.198;2023-05-07T04:46:11;9.30;;;6.83;;
9248;SDS011;4660;41.768;26.198;2023-05-07T04:48:37;9.50;;;7.13;;
9248;SDS011;4660;41.768;26.198;2023-05-07T04:51:02;8.33;;;6.73;;
9248;SDS011;4660;41.768;26.198;2023-05-07T04:53:28;9.00;;;7.33;;
9248;SDS011;4660;41.768;26.198;2023-05-07T04:55:56;9.57;;;6.73;;
9248;SDS011;4660;41.768;26.198;2023-05-07T04:58:23;10.13;;;6.90;;
9248;SDS011;4660;41.768;26.198;2023-05-07T05:00:49;9.83;;;7.83;;
9248;SDS011;4660;41.768;26.198;2023-05-07T05:03:15;10.67;;;7.10;;
9248;SDS011;4660;41.768;26.198;2023-05-07T05:05:40;7.63;;;6.30;;
9248;SDS011;4660;41.768;26.198;2023-05-07T05:08:06;8.27;;;6.90;;
9248;SDS011;4660;41.768;26.198;2023-05-07T05:10:31;11.07;;;6.10;;
9248;SDS011;4660;41.768;26.198;2023-05-07T05:12:57;7.97;;;6.00;;
9248;SDS011;4660;41.768;26.198;2023-05-07T05:15:23;8.13;;;5.63;;
9248;SDS011;4660;41.768;26.198;2023-05-07T05:17:48;8.37;;;5.70;;
9248;SDS011;4660;41.768;26.198;2023-05-07T05:20:14;8.63;;;5.73;;
9248;SDS011;4660;41.768;26.198;2023-05-07T05:22:41;8.23;;;6.50;;
9248;SDS011;4660;41.768;26.198;2023-05-07T05:25:07;8.10;;;5.87;;
9248;SDS011;4660;41.768;26.198;2023-05-07T05:27:33;10.43;;;5.63;;
9248;SDS011;4660;41.768;26.198;2023-05-07T05:30:00;9.63;;;6.10;;
9248;SDS011;4660;41.768;26.198;2023-05-07T05:32:25;7.97;;;5.60;;
9248;SDS011;4660;41.768;26.198;2023-05-07T05:34:51;9.13;;;5.70;;
9248;SDS011;4660;41.768;26.198;2023-05-07T05:37:16;9.10;;;5.20;;
9248;SDS011;4660;41.768;26.198;2023-05-07T05:39:42;8.50;;;4.90;;
9248;SDS011;4660;41.768;26.198;2023-05-07T05:42:10;7.70;;;5.63;;
9248;SDS011;4660;41.768;26.198;2023-05-07T05:44:35;9.50;;;5.40;;
9248;SDS011;4660;41.768;26.198;2023-05-07T05:47:01;6.93;;;5.23;;
9248;SDS011;4660;41.768;26.198;2023-05-07T05:49:26;6.07;;;4.97;;
9248;SDS011;4660;41.768;26.198;2023-05-07T05:51:52;6.97;;;4.77;;
9248;SDS011;4660;41.768;26.198;2023-05-07T05:54:17;9.73;;;4.60;;
9248;SDS011;4660;41.768;26.198;2023-05-07T05:56:43;6.63;;;4.80;;
9248;SDS011;4660;41.768;26.198;2023-05-07T05:59:09;7.10;;;4.43;;
9248;SDS011;4660;41.768;26.198;2023-05-07T06:01:35;6.23;;;4.43;;
9248;SDS011;4660;41.768;26.198;2023-05-07T06:04:01;8.73;;;4.97;;
9248;SDS011;4660;41.768;26.198;2023-05-07T06:06:26;6.63;;;4.30;;
9248;SDS011;4660;41.768;26.198;2023-05-07T06:08:52;7.33;;;4.23;;
9248;SDS011;4660;41.768;26.198;2023-05-07T06:11:18;6.77;;;4.27;;
9248;SDS011;4660;41.768;26.198;2023-05-07T06:13:43;6.10;;;4.13;;
9248;SDS011;4660;41.768;26.198;2023-05-07T06:16:09;5.87;;;4.27;;
9248;SDS011;4660;41.768;26.198;2023-05-07T06:18:34;6.27;;;4.60;;
9248;SDS011;4660;41.768;26.198;2023-05-07T06:21:03;6.30;;;4.43;;
9248;SDS011;4660;41.768;26.198;2023-05-07T06:23:29;7.68;;;4.50;;
9248;SDS011;4660;41.768;26.198;2023-05-07T06:25:55;9.27;;;3.87;;
9248;SDS011;4660;41.768;26.198;2023-05-07T06:28:20;6.37;;;3.63;;
9248;SDS011;4660;41.768;26.198;2023-05-07T06:30:46;5.00;;;3.00;;
9248;SDS011;4660;41.768;26.198;2023-05-07T06:33:13;6.20;;;3.47;;
9248;SDS011;4660;41.768;26.198;2023-05-07T06:35:39;5.70;;;2.80;;
9248;SDS011;4660;41.768;26.198;2023-05-07T06:38:05;5.70;;;2.33;;
9248;SDS011;4660;41.768;26.198;2023-05-07T06:40:31;3.20;;;2.47;;
9248;SDS011;4660;41.768;26.198;2023-05-07T06:42:56;2.87;;;2.17;;
9248;SDS011;4660;41.768;26.198;2023-05-07T06:45:22;3.00;;;2.13;;
9248;SDS011;4660;41.768;26.198;2023-05-07T06:47:48;4.95;;;2.40;;
9248;SDS011;4660;41.768;26.198;2023-05-07T06:50:14;3.47;;;2.85;;
9248;SDS011;4660;41.768;26.198;2023-05-07T06:52:42;5.28;;;3.30;;
9248;SDS011;4660;41.768;26.198;2023-05-07T06:55:08;6.50;;;2.90;;
9248;SDS011;4660;41.768;26.198;2023-05-07T06:57:34;5.63;;;3.03;;
9248;SDS011;4660;41.768;26.198;2023-05-07T07:00:00;5.15;;;3.08;;
9248;SDS011;4660;41.768;26.198;2023-05-07T07:02:25;2.30;;;2.10;;
9248;SDS011;4660;41.768;26.198;2023-05-07T07:04:52;5.15;;;2.63;;
9248;SDS011;4660;41.768;26.198;2023-05-07T07:07:17;3.30;;;2.50;;
9248;SDS011;4660;41.768;26.198;2023-05-07T07:09:43;5.55;;;3.10;;
9248;SDS011;4660;41.768;26.198;2023-05-07T07:12:09;3.58;;;2.30;;
9248;SDS011;4660;41.768;26.198;2023-05-07T07:14:34;4.45;;;2.20;;
9248;SDS011;4660;41.768;26.198;2023-05-07T07:17:00;8.05;;;2.60;;
9248;SDS011;4660;41.768;26.198;2023-05-07T07:19:26;4.90;;;2.38;;
9248;SDS011;4660;41.768;26.198;2023-05-07T07:21:51;5.45;;;2.95;;
9248;SDS011;4660;41.768;26.198;2023-05-07T07:24:17;9.45;;;3.47;;
9248;SDS011;4660;41.768;26.198;2023-05-07T07:26:46;6.90;;;3.53;;
9248;SDS011;4660;41.768;26.198;2023-05-07T07:29:13;4.32;;;2.20;;
9248;SDS011;4660;41.768;26.198;2023-05-07T07:31:39;2.38;;;2.00;;
9248;SDS011;4660;41.768;26.198;2023-05-07T07:34:05;5.15;;;2.50;;
9248;SDS011;4660;41.768;26.198;2023-05-07T07:36:30;2.45;;;2.22;;
9248;SDS011;4660;41.768;26.198;2023-05-07T07:38:56;3.03;;;2.10;;
9248;SDS011;4660;41.768;26.198;2023-05-07T07:41:22;1.65;;;1.50;;
9248;SDS011;4660;41.768;26.198;2023-05-07T07:43:52;2.72;;;1.63;;
9248;SDS011;4660;41.768;26.198;2023-05-07T07:46:18;4.63;;;1.48;;
9248;SDS011;4660;41.768;26.198;2023-05-07T07:48:47;3.00;;;1.83;;
9248;SDS011;4660;41.768;26.198;2023-05-07T07:51:17;7.55;;;1.85;;
9248;SDS011;4660;41.768;26.198;2023-05-07T07:53:43;1.70;;;1.50;;
9248;SDS011;4660;41.768;26.198;2023-05-07T07:56:09;2.38;;;1.75;;
9248;SDS011;4660;41.768;26.198;2023-05-07T07:58:35;3.40;;;1.52;;
9248;SDS011;4660;41.768;26.198;2023-05-07T08:01:03;4.68;;;1.65;;
9248;SDS011;4660;41.768;26.198;2023-05-07T08:03:31;3.15;;;1.52;;
9248;SDS011;4660;41.768;26.198;2023-05-07T08:05:58;1.40;;;1.30;;
9248;SDS011;4660;41.768;26.198;2023-05-07T08:08:23;3.10;;;1.80;;
9248;SDS011;4660;41.768;26.198;2023-05-07T08:10:49;2.28;;;1.50;;
9248;SDS011;4660;41.768;26.198;2023-05-07T08:13:15;4.03;;;1.58;;
9248;SDS011;4660;41.768;26.198;2023-05-07T08:15:41;3.22;;;1.80;;
9248;SDS011;4660;41.768;26.198;2023-05-07T08:18:08;2.10;;;1.60;;
9248;SDS011;4660;41.768;26.198;2023-05-07T08:20:34;4.38;;;1.33;;
9248;SDS011;4660;41.768;26.198;2023-05-07T08:23:04;2.47;;;1.63;;
9248;SDS011;4660;41.768;26.198;2023-05-07T08:25:34;3.50;;;2.10;;
9248;SDS011;4660;41.768;26.198;2023-05-07T08:28:00;1.95;;;1.60;;
9248;SDS011;4660;41.768;26.198;2023-05-07T08:30:29;8.02;;;1.98;;
9248;SDS011;4660;41.768;26.198;2023-05-07T08:32:56;4.35;;;1.73;;
9248;SDS011;4660;41.768;26.198;2023-05-07T08:35:22;3.13;;;2.15;;
9248;SDS011;4660;41.768;26.198;2023-05-07T08:37:48;1.77;;;1.58;;
9248;SDS011;4660;41.768;26.198;2023-05-07T08:40:15;4.15;;;1.75;;
9248;SDS011;4660;41.768;26.198;2023-05-07T08:42:41;4.82;;;1.50;;
9248;SDS011;4660;41.768;26.198;2023-05-07T08:45:09;3.00;;;1.67;;
9248;SDS011;4660;41.768;26.198;2023-05-07T08:47:43;3.95;;;1.77;;
9248;SDS011;4660;41.768;26.198;2023-05-07T08:50:11;6.13;;;1.48;;
9248;SDS011;4660;41.768;26.198;2023-05-07T08:52:36;3.60;;;1.60;;
9248;SDS011;4660;41.768;26.198;2023-05-07T08:55:05;6.38;;;1.52;;
9248;SDS011;4660;41.768;26.198;2023-05-07T08:57:32;3.55;;;1.67;;
9248;SDS011;4660;41.768;26.198;2023-05-07T08:59:57;6.60;;;2.20;;
9248;SDS011;4660;41.768;26.198;2023-05-07T09:02:25;1.60;;;1.50;;
9248;SDS011;4660;41.768;26.198;2023-05-07T09:04:51;2.63;;;1.80;;
9248;SDS011;4660;41.768;26.198;2023-05-07T09:07:19;1.88;;;1.77;;
9248;SDS011;4660;41.768;26.198;2023-05-07T09:09:45;4.90;;;1.85;;
9248;SDS011;4660;41.768;26.198;2023-05-07T09:12:11;5.15;;;2.33;;
9248;SDS011;4660;41.768;26.198;2023-05-07T09:14:37;2.10;;;1.75;;
9248;SDS011;4660;41.768;26.198;2023-05-07T09:17:04;4.63;;;1.60;;
9248;SDS011;4660;41.768;26.198;2023-05-07T09:19:30;4.40;;;1.90;;
9248;SDS011;4660;41.768;26.198;2023-05-07T09:22:00;4.07;;;1.52;;
9248;SDS011;4660;41.768;26.198;2023-05-07T09:24:27;4.90;;;1.73;;
9248;SDS011;4660;41.768;26.198;2023-05-07T09:26:59;2.15;;;1.70;;
9248;SDS011;4660;41.768;26.198;2023-05-07T09:29:29;4.13;;;1.70;;
9248;SDS011;4660;41.768;26.198;2023-05-07T09:32:00;2.75;;;2.47;;
9248;SDS011;4660;41.768;26.198;2023-05-07T09:34:27;2.35;;;1.58;;
9248;SDS011;4660;41.768;26.198;2023-05-07T09:36:53;5.32;;;1.90;;
9248;SDS011;4660;41.768;26.198;2023-05-07T09:39:19;2.20;;;1.80;;
9248;SDS011;4660;41.768;26.198;2023-05-07T09:41:45;2.53;;;1.67;;
9248;SDS011;4660;41.768;26.198;2023-05-07T09:44:12;3.00;;;1.70;;
9248;SDS011;4660;41.768;26.198;2023-05-07T09:46:43;1.90;;;1.45;;
9248;SDS011;4660;41.768;26.198;2023-05-07T09:49:13;2.67;;;1.70;;
9248;SDS011;4660;41.768;26.198;2023-05-07T09:51:47;3.85;;;2.10;;
9248;SDS011;4660;41.768;26.198;2023-05-07T09:54:16;2.60;;;1.48;;
9248;SDS011;4660;41.768;26.198;2023-05-07T09:56:45;1.50;;;1.40;;
9248;SDS011;4660;41.768;26.198;2023-05-07T09:59:15;2.83;;;1.40;;
9248;SDS011;4660;41.768;26.198;2023-05-07T10:01:42;2.90;;;1.60;;
9248;SDS011;4660;41.768;26.198;2023-05-07T10:04:10;2.28;;;1.38;;
9248;SDS011;4660;41.768;26.198;2023-05-07T10:06:36;2.33;;;1.73;;
9248;SDS011;4660;41.768;26.198;2023-05-07T10:09:03;4.30;;;1.52;;
9248;SDS011;4660;41.768;26.198;2023-05-07T10:11:31;1.50;;;1.40;;
9248;SDS011;4660;41.768;26.198;2023-05-07T10:14:02;3.50;;;1.85;;
9248;SDS011;4660;41.768;26.198;2023-05-07T10:16:31;4.28;;;1.65;;
9248;SDS011;4660;41.768;26.198;2023-05-07T10:19:04;4.22;;;1.65;;
9248;SDS011;4660;41.768;26.198;2023-05-07T10:21:36;2.63;;;1.63;;
9248;SDS011;4660;41.768;26.198;2023-05-07T10:24:08;3.90;;;1.65;;
9248;SDS011;4660;41.768;26.198;2023-05-07T10:26:42;4.13;;;1.50;;
9248;SDS011;4660;41.768;26.198;2023-05-07T10:29:15;2.85;;;1.63;;
9248;SDS011;4660;41.768;26.198;2023-05-07T10:34:42;2.95;;;1.75;;
9248;SDS011;4660;41.768;26.198;2023-05-07T10:37:14;3.67;;;2.00;;
9248;SDS011;4660;41.768;26.198;2023-05-07T10:39:41;2.08;;;1.80;;
9248;SDS011;4660;41.768;26.198;2023-05-07T10:42:10;1.90;;;1.70;;
9248;SDS011;4660;41.768;26.198;2023-05-07T10:44:36;2.00;;;1.67;;
9248;SDS011;4660;41.768;26.198;2023-05-07T10:47:10;1.90;;;1.35;;
9248;SDS011;4660;41.768;26.198;2023-05-07T10:54:39;1.88;;;1.50;;
9248;SDS011;4660;41.768;26.198;2023-05-07T10:59:58;2.35;;;1.70;;
9248;SDS011;4660;41.768;26.198;2023-05-07T11:02:42;4.57;;;1.75;;
9248;SDS011;4660;41.768;26.198;2023-05-07T11:05:25;1.70;;;1.58;;
9248;SDS011;4660;41.768;26.198;2023-05-07T11:07:56;2.70;;;1.70;;
9248;SDS011;4660;41.768;26.198;2023-05-07T11:10:22;3.50;;;1.65;;
9248;SDS011;4660;41.768;26.198;2023-05-07T11:15:14;4.22;;;1.73;;
9248;SDS011;4660;41.768;26.198;2023-05-07T11:17:54;2.28;;;1.40;;
9248;SDS011;4660;41.768;26.198;2023-05-07T11:20:20;3.75;;;1.63;;
9248;SDS011;4660;41.768;26.198;2023-05-07T11:23:12;3.58;;;1.50;;
9248;SDS011;4660;41.768;26.198;2023-05-07T11:26:03;3.30;;;1.42;;
9248;SDS011;4660;41.768;26.198;2023-05-07T11:28:30;5.85;;;2.40;;
9248;SDS011;4660;41.768;26.198;2023-05-07T11:31:01;1.92;;;1.63;;
9248;SDS011;4660;41.768;26.198;2023-05-07T11:33:28;4.07;;;1.67;;
9248;SDS011;4660;41.768;26.198;2023-05-07T11:35:57;2.55;;;1.70;;
9248;SDS011;4660;41.768;26.198;2023-05-07T11:38:25;3.38;;;1.50;;
9248;SDS011;4660;41.768;26.198;2023-05-07T11:40:52;3.05;;;1.60;;
9248;SDS011;4660;41.768;26.198;2023-05-07T11:43:19;2.75;;;1.70;;
9248;SDS011;4660;41.768;26.198;2023-05-07T11:45:48;3.78;;;1.80;;
9248;SDS011;4660;41.768;26.198;2023-05-07T11:48:15;11.20;;;2.15;;
9248;SDS011;4660;41.768;26.198;2023-05-07T11:50:59;2.78;;;1.75;;
9248;SDS011;4660;41.768;26.198;2023-05-07T11:53:26;3.97;;;1.80;;
9248;SDS011;4660;41.768;26.198;2023-05-07T11:55:53;2.33;;;1.75;;
9248;SDS011;4660;41.768;26.198;2023-05-07T11:58:22;2.10;;;1.77;;
9248;SDS011;4660;41.768;26.198;2023-05-07T12:00:49;2.33;;;1.42;;
9248;SDS011;4660;41.768;26.198;2023-05-07T12:03:15;5.72;;;1.70;;
9248;SDS011;4660;41.768;26.198;2023-05-07T12:05:42;4.38;;;1.65;;
9248;SDS011;4660;41.768;26.198;2023-05-07T12:08:13;2.17;;;1.67;;
9248;SDS011;4660;41.768;26.198;2023-05-07T12:10:41;1.50;;;1.38;;
9248;SDS011;4660;41.768;26.198;2023-05-07T12:15:55;1.50;;;1.40;;
9248;SDS011;4660;41.768;26.198;2023-05-07T12:18:21;1.50;;;1.40;;
9248;SDS011;4660;41.768;26.198;2023-05-07T12:20:50;4.20;;;1.40;;
9248;SDS011;4660;41.768;26.198;2023-05-07T12:23:16;1.70;;;1.60;;
9248;SDS011;4660;41.768;26.198;2023-05-07T12:25:42;1.58;;;1.48;;
9248;SDS011;4660;41.768;26.198;2023-05-07T12:28:18;3.67;;;1.88;;
9248;SDS011;4660;41.768;26.198;2023-05-07T12:30:45;2.38;;;1.65;;
9248;SDS011;4660;41.768;26.198;2023-05-07T12:33:16;3.28;;;1.35;;
9248;SDS011;4660;41.768;26.198;2023-05-07T12:35:43;4.22;;;1.45;;
9248;SDS011;4660;41.768;26.198;2023-05-07T12:38:09;1.77;;;1.40;;
9248;SDS011;4660;41.768;26.198;2023-05-07T12:43:19;3.55;;;1.58;;
9248;SDS011;4660;41.768;26.198;2023-05-07T12:45:46;2.35;;;1.77;;
9248;SDS011;4660;41.768;26.198;2023-05-07T12:48:14;2.83;;;1.50;;
9248;SDS011;4660;41.768;26.198;2023-05-07T12:50:40;3.10;;;1.50;;
9248;SDS011;4660;41.768;26.198;2023-05-07T12:53:06;2.97;;;2.28;;
9248;SDS011;4660;41.768;26.198;2023-05-07T12:55:40;3.63;;;1.70;;
9248;SDS011;4660;41.768;26.198;2023-05-07T12:58:07;3.42;;;2.00;;
9248;SDS011;4660;41.768;26.198;2023-05-07T13:00:39;3.72;;;3.10;;
9248;SDS011;4660;41.768;26.198;2023-05-07T13:03:05;2.33;;;1.55;;
9248;SDS011;4660;41.768;26.198;2023-05-07T13:05:31;2.80;;;2.20;;
9248;SDS011;4660;41.768;26.198;2023-05-07T13:07:58;3.78;;;1.50;;
9248;SDS011;4660;41.768;26.198;2023-05-07T13:10:24;2.78;;;1.65;;
9248;SDS011;4660;41.768;26.198;2023-05-07T13:12:50;6.82;;;1.65;;
9248;SDS011;4660;41.768;26.198;2023-05-07T13:15:17;1.33;;;1.20;;
9248;SDS011;4660;41.768;26.198;2023-05-07T13:17:43;2.28;;;1.83;;
9248;SDS011;4660;41.768;26.198;2023-05-07T13:20:09;3.47;;;1.85;;
9248;SDS011;4660;41.768;26.198;2023-05-07T13:22:36;2.72;;;1.48;;
9248;SDS011;4660;41.768;26.198;2023-05-07T13:25:03;2.38;;;1.80;;
9248;SDS011;4660;41.768;26.198;2023-05-07T13:27:28;4.15;;;2.20;;
9248;SDS011;4660;41.768;26.198;2023-05-07T13:29:56;1.98;;;1.52;;
9248;SDS011;4660;41.768;26.198;2023-05-07T13:32:21;2.22;;;1.60;;
9248;SDS011;4660;41.768;26.198;2023-05-07T13:34:47;3.60;;;1.77;;
9248;SDS011;4660;41.768;26.198;2023-05-07T13:37:12;3.00;;;2.00;;
9248;SDS011;4660;41.768;26.198;2023-05-07T13:39:38;1.48;;;1.38;;
9248;SDS011;4660;41.768;26.198;2023-05-07T13:42:04;4.90;;;4.40;;
9248;SDS011;4660;41.768;26.198;2023-05-07T13:44:29;3.03;;;1.80;;
9248;SDS011;4660;41.768;26.198;2023-05-07T13:46:55;4.20;;;1.73;;
9248;SDS011;4660;41.768;26.198;2023-05-07T13:49:20;2.45;;;1.38;;
9248;SDS011;4660;41.768;26.198;2023-05-07T13:51:46;3.92;;;1.48;;
9248;SDS011;4660;41.768;26.198;2023-05-07T13:54:12;2.72;;;1.50;;
9248;SDS011;4660;41.768;26.198;2023-05-07T13:56:38;1.98;;;1.42;;
9248;SDS011;4660;41.768;26.198;2023-05-07T13:59:03;2.20;;;1.63;;
9248;SDS011;4660;41.768;26.198;2023-05-07T14:01:29;2.58;;;1.80;;
9248;SDS011;4660;41.768;26.198;2023-05-07T14:03:55;5.55;;;2.10;;
9248;SDS011;4660;41.768;26.198;2023-05-07T14:06:21;3.38;;;1.40;;
9248;SDS011;4660;41.768;26.198;2023-05-07T14:08:47;2.97;;;1.50;;
9248;SDS011;4660;41.768;26.198;2023-05-07T14:11:12;5.35;;;1.58;;
9248;SDS011;4660;41.768;26.198;2023-05-07T14:13:42;1.30;;;1.25;;
9248;SDS011;4660;41.768;26.198;2023-05-07T14:16:08;2.50;;;1.65;;
9248;SDS011;4660;41.768;26.198;2023-05-07T14:18:33;3.53;;;2.00;;
9248;SDS011;4660;41.768;26.198;2023-05-07T14:21:02;3.58;;;1.85;;
9248;SDS011;4660;41.768;26.198;2023-05-07T14:23:28;4.15;;;1.80;;
9248;SDS011;4660;41.768;26.198;2023-05-07T14:25:54;4.50;;;1.60;;
9248;SDS011;4660;41.768;26.198;2023-05-07T14:28:21;4.45;;;1.73;;
9248;SDS011;4660;41.768;26.198;2023-05-07T14:30:48;2.63;;;1.70;;
9248;SDS011;4660;41.768;26.198;2023-05-07T14:33:13;1.33;;;1.23;;
9248;SDS011;4660;41.768;26.198;2023-05-07T14:35:39;5.80;;;1.40;;
9248;SDS011;4660;41.768;26.198;2023-05-07T14:38:05;2.58;;;1.60;;
9248;SDS011;4660;41.768;26.198;2023-05-07T14:40:31;2.20;;;1.30;;
9248;SDS011;4660;41.768;26.198;2023-05-07T14:42:57;3.95;;;1.60;;
9248;SDS011;4660;41.768;26.198;2023-05-07T14:45:22;3.72;;;2.00;;
9248;SDS011;4660;41.768;26.198;2023-05-07T14:47:48;2.97;;;1.50;;
9248;SDS011;4660;41.768;26.198;2023-05-07T14:50:15;3.30;;;1.60;;
9248;SDS011;4660;41.768;26.198;2023-05-07T14:52:40;2.55;;;1.60;;
9248;SDS011;4660;41.768;26.198;2023-05-07T14:55:06;2.33;;;2.13;;
9248;SDS011;4660;41.768;26.198;2023-05-07T14:57:32;1.75;;;1.50;;
9248;SDS011;4660;41.768;26.198;2023-05-07T15:00:00;2.20;;;2.00;;
9248;SDS011;4660;41.768;26.198;2023-05-07T15:02:29;3.50;;;1.73;;
9248;SDS011;4660;41.768;26.198;2023-05-07T15:04:55;4.38;;;2.05;;
9248;SDS011;4660;41.768;26.198;2023-05-07T15:07:21;2.03;;;1.70;;
9248;SDS011;4660;41.768;26.198;2023-05-07T15:09:47;3.50;;;1.77;;
9248;SDS011;4660;41.768;26.198;2023-05-07T15:12:13;5.03;;;1.67;;
9248;SDS011;4660;41.768;26.198;2023-05-07T15:14:40;2.92;;;1.70;;
9248;SDS011;4660;41.768;26.198;2023-05-07T15:17:09;2.17;;;1.67;;